• Join FlightAware (Why Join?)
  • Login
  • US Flag 
08:03PM EDT


 

Airport Tracker/Info


-or-


 

Live Flight TrackerFlight Track Log ✈ AWE4688 ✈ 06-May-2014 ✈ KPHL - KMHT

Flight Track Log - Related Links

Times and Time Zones

All times are in EDT time to prevent confusion due to time zone crossing. See the AWE4688 flight status page for this flight to view local times or setup timezone preferences in your user account.

Time Position Orientation Groundspeed Altitude Reporting Facility
EDT Latitude Longitude Course Direction KTS MPH feet Rate Location/Type
11:46AM 39.8667 -75.2833 37° Northeast 151 174 700  Level Philadelphia TRACON
11:46AM 39.8500 -75.3000 218° Southwest 177 204 1,500 1,860 Climbing Philadelphia TRACON
11:47AM 39.8000 -75.3500 218° Southwest 225 259 3,400 2,100 Climbing Philadelphia TRACON
11:48AM 39.7500 -75.3167 153° Southeast 287 330 5,800 2,460 Climbing Philadelphia TRACON
11:50AM 39.8045 -74.6789 37° Northeast  Level FlightAware Approximate
11:50AM 39.7489 -75.1450 90° East 301 346 10,200  Level New York Center
11:51AM 39.8765 -74.6069 37° Northeast  Level FlightAware Approximate
11:51AM 39.7619 -75.0161 82° East 313 360 12,000  Level New York Center
11:52AM 39.7725 -74.8978 83° East 348 400 12,000 900 Level New York Center
11:53AM 39.8289 -74.7742 59° Northeast 351 404 13,900 2,100 Climbing New York Center
11:54AM 39.8964 -74.6833 46° Northeast 344 396 16,200 2,100 Climbing New York Center
11:55AM 39.9619 -74.5922 47° Northeast 344 396 18,100 1,680 Climbing New York Center
11:56AM 40.0231 -74.5061 47° Northeast 344 396 19,600 1,380 Climbing New York Center
11:57AM 40.1033 -74.4100 42° Northeast 354 407 20,900 1,200 Climbing New York Center
11:58AM 40.1850 -74.3300 37° Northeast 354 407 22,000 1,080 Climbing New York Center
11:59AM 40.2719 -74.2747 26° Northeast 345 397 23,100 1,080 Climbing New York Center
12:00PM 40.3642 -74.2603 North 334 384 24,200 1,020 Climbing New York Center
12:01PM 40.4564 -74.2433 North 329 379 25,200 960 Climbing New York Center
12:02PM 40.5464 -74.2258 North 334 384 26,200 1,020 Climbing New York Center
12:04PM 40.7647 -74.1864 North 336 387 28,700 780 Climbing Boston Center
12:05PM 40.8564 -74.1692 North 335 386 29,000 120 Climbing Boston Center
12:06PM 40.9522 -74.1506 North 345 397 29,000  Level Boston Center
12:07PM 41.0503 -74.1319 North 350 403 29,000  Level Boston Center
12:08PM 41.1472 -74.1150 North 353 406 29,000  Level Boston Center
12:09PM 41.2425 -74.0961 North 347 399 29,000  Level Boston Center
12:10PM 41.3356 -74.0786 North 341 392 29,000  Level Boston Center
12:11PM 41.4292 -74.0608 North 341 392 29,000  Level Boston Center
12:12PM 41.5447 -74.0439 North 342 394 29,000  Level Boston Center
12:13PM 41.6364 -74.0547 355° North 338 389 29,000  Level Boston Center
12:14PM 41.7336 -74.0442 North 355 409 29,000 -180 Level Boston Center
12:15PM 41.8192 -74.0100 17° North 372 428 28,700 -720 Descending Boston Center
12:16PM 41.9081 -73.8728 49° Northeast 409 471 27,500 -840 Descending Boston Center
12:17PM 41.9786 -73.7503 52° Northeast 416 479 27,000 -300 Descending Boston Center
12:18PM 42.0478 -73.6278 53° Northeast 413 475 27,000 -360 Level Boston Center
12:19PM 42.1164 -73.5097 52° Northeast 422 486 26,300 -840 Descending Boston Center
12:20PM 42.1864 -73.3864 53° Northeast 419 482 25,300 -1,020 Descending Boston Center
12:22PM 42.2581 -73.2617 52° Northeast 403 464 24,200 -1,080 Descending Boston Center
12:23PM 42.3208 -73.1486 53° Northeast 383 441 23,100 -1,260 Descending Boston Center
12:24PM 42.3956 -73.0144 53° Northeast 375 432 21,700 -1,320 Descending Boston Center
12:25PM 42.4578 -72.9039 53° Northeast 380 437 20,500 -1,200 Descending Boston Center
12:26PM 42.5200 -72.7906 53° Northeast 378 435 19,400 -960 Descending Boston Center
12:27PM 42.5839 -72.6617 56° Northeast 378 435 18,600 -1,140 Descending Boston Center
12:28PM 42.6197 -72.5544 66° East 369 425 17,100 -1,560 Descending Boston Center
12:29PM 42.6589 -72.4333 66° East 356 410 15,500 -1,680 Descending Boston Center
12:30PM 42.7025 -72.2992 66° East 329 379 13,700 -1,620 Descending Boston Center
12:31PM 42.7375 -72.1892 67° East 320 368 12,200 -1,440 Descending Boston Center
12:32PM 42.7744 -72.0756 66° East 307 353 10,800 -1,380 Descending Boston Center
12:33PM 42.8061 -71.9753 67° East 296 341 9,400 -1,620 Descending Boston Center
12:34PM 42.8269 -71.8706 75° East 288 331 7,600 -1,800 Descending Boston Center
12:35PM 42.8333 -71.7542 86° East 289 333 5,800 -1,740 Descending Boston Center
12:36PM 42.8058 -71.6547 111° Southeast 283 326 4,100 -1,140 Descending Boston Center
12:37PM 42.7817 -71.5617 109° East 267 307 3,500 -600 Descending Boston Center
12:38PM 42.7808 -71.4786 91° East 222 255 2,900 -540 Descending Boston Center
12:39PM 42.7897 -71.4033 81° East 189 217 2,500 -480 Descending Boston Center
12:40PM 42.8272 -71.3761 28° Northeast 166 191 2,000 -480 Descending Boston Center
12:41PM 42.8625 -71.3925 341° North 136 157 1,600 -600 Descending Boston Center
12:42PM 42.9000 -71.4147 337° Northwest 135 155 800 -600 Descending Boston Center
12:43PM 42.9275 -71.4325 335° Northwest 135 155 400 -420 Descending Boston Center